sensor_id;sensor_type;location;lat;lon;timestamp;temperature;humidity
2867;DHT22;1441;48.886;8.728;2022-10-30T00:00:31;15.10;98.50
2867;DHT22;1441;48.886;8.728;2022-10-30T00:02:57;15.10;97.90
2867;DHT22;1441;48.886;8.728;2022-10-30T00:05:22;15.10;97.90
2867;DHT22;1441;48.886;8.728;2022-10-30T00:07:49;15.00;98.80
2867;DHT22;1441;48.886;8.728;2022-10-30T00:10:15;15.00;98.40
2867;DHT22;1441;48.886;8.728;2022-10-30T00:12:41;15.10;98.00
2867;DHT22;1441;48.886;8.728;2022-10-30T00:15:08;15.30;96.80
2867;DHT22;1441;48.886;8.728;2022-10-30T00:17:33;15.20;97.50
2867;DHT22;1441;48.886;8.728;2022-10-30T00:19:59;15.30;97.10
2867;DHT22;1441;48.886;8.728;2022-10-30T00:22:25;15.20;97.10
2867;DHT22;1441;48.886;8.728;2022-10-30T00:24:50;15.30;97.20
2867;DHT22;1441;48.886;8.728;2022-10-30T00:27:16;15.40;96.70
2867;DHT22;1441;48.886;8.728;2022-10-30T00:29:41;15.30;97.70
2867;DHT22;1441;48.886;8.728;2022-10-30T00:32:07;15.10;97.90
2867;DHT22;1441;48.886;8.728;2022-10-30T00:34:33;15.00;99.00
2867;DHT22;1441;48.886;8.728;2022-10-30T00:36:58;15.10;97.70
2867;DHT22;1441;48.886;8.728;2022-10-30T00:39:24;15.30;97.20
2867;DHT22;1441;48.886;8.728;2022-10-30T00:41:49;15.30;97.20
2867;DHT22;1441;48.886;8.728;2022-10-30T00:44:39;15.20;97.30
2867;DHT22;1441;48.886;8.728;2022-10-30T00:47:27;15.20;97.80
2867;DHT22;1441;48.886;8.728;2022-10-30T00:52:55;15.20;97.20
2867;DHT22;1441;48.886;8.728;2022-10-30T00:55:30;15.00;98.70
2867;DHT22;1441;48.886;8.728;2022-10-30T00:57:58;14.90;98.80
2867;DHT22;1441;48.886;8.728;2022-10-30T01:00:27;15.10;98.50
2867;DHT22;1441;48.886;8.728;2022-10-30T01:02:54;15.10;97.50
2867;DHT22;1441;48.886;8.728;2022-10-30T01:05:22;15.00;98.90
2867;DHT22;1441;48.886;8.728;2022-10-30T01:07:48;15.00;98.30
2867;DHT22;1441;48.886;8.728;2022-10-30T01:10:14;14.90;99.20
2867;DHT22;1441;48.886;8.728;2022-10-30T01:12:41;14.90;98.90
2867;DHT22;1441;48.886;8.728;2022-10-30T01:15:08;15.00;98.30
2867;DHT22;1441;48.886;8.728;2022-10-30T01:23:27;14.80;99.00
2867;DHT22;1441;48.886;8.728;2022-10-30T01:32:12;15.00;98.60
2867;DHT22;1441;48.886;8.728;2022-10-30T01:34:50;15.00;97.40
2867;DHT22;1441;48.886;8.728;2022-10-30T01:40:12;14.90;98.20
2867;DHT22;1441;48.886;8.728;2022-10-30T01:42:48;14.90;98.10
2867;DHT22;1441;48.886;8.728;2022-10-30T01:45:21;14.90;99.00
2867;DHT22;1441;48.886;8.728;2022-10-30T01:48:12;15.00;98.10
2867;DHT22;1441;48.886;8.728;2022-10-30T01:58:51;14.90;98.00
2867;DHT22;1441;48.886;8.728;2022-10-30T02:01:19;14.80;98.30
2867;DHT22;1441;48.886;8.728;2022-10-30T02:03:45;14.90;98.20
2867;DHT22;1441;48.886;8.728;2022-10-30T02:06:11;15.00;97.60
2867;DHT22;1441;48.886;8.728;2022-10-30T02:08:37;15.10;96.10
2867;DHT22;1441;48.886;8.728;2022-10-30T02:11:04;14.90;97.80
2867;DHT22;1441;48.886;8.728;2022-10-30T02:13:30;14.90;96.80
2867;DHT22;1441;48.886;8.728;2022-10-30T02:15:57;14.80;97.70
2867;DHT22;1441;48.886;8.728;2022-10-30T02:18:23;14.80;97.70
2867;DHT22;1441;48.886;8.728;2022-10-30T02:20:49;14.70;98.60
2867;DHT22;1441;48.886;8.728;2022-10-30T02:23:15;14.60;99.00
2867;DHT22;1441;48.886;8.728;2022-10-30T02:25:44;14.70;98.40
2867;DHT22;1441;48.886;8.728;2022-10-30T02:28:10;14.60;99.20
2867;DHT22;1441;48.886;8.728;2022-10-30T02:30:36;14.50;99.30
2867;DHT22;1441;48.886;8.728;2022-10-30T02:33:01;14.50;98.60
2867;DHT22;1441;48.886;8.728;2022-10-30T02:35:28;14.60;98.40
2867;DHT22;1441;48.886;8.728;2022-10-30T02:37:54;14.40;99.20
2867;DHT22;1441;48.886;8.728;2022-10-30T02:40:20;14.40;99.00
2867;DHT22;1441;48.886;8.728;2022-10-30T02:42:51;14.30;99.80
2867;DHT22;1441;48.886;8.728;2022-10-30T02:45:16;14.30;99.20
2867;DHT22;1441;48.886;8.728;2022-10-30T02:47:42;14.20;99.40
2867;DHT22;1441;48.886;8.728;2022-10-30T02:50:08;14.20;99.70
2867;DHT22;1441;48.886;8.728;2022-10-30T02:52:34;14.10;99.90
2867;DHT22;1441;48.886;8.728;2022-10-30T02:54:59;14.10;99.80
2867;DHT22;1441;48.886;8.728;2022-10-30T02:57:25;14.10;99.70
2867;DHT22;1441;48.886;8.728;2022-10-30T02:59:50;14.20;98.60
2867;DHT22;1441;48.886;8.728;2022-10-30T03:02:16;14.20;99.00
2867;DHT22;1441;48.886;8.728;2022-10-30T03:04:41;14.10;98.90
2867;DHT22;1441;48.886;8.728;2022-10-30T03:07:07;14.10;99.20
2867;DHT22;1441;48.886;8.728;2022-10-30T03:09:33;14.10;99.10
2867;DHT22;1441;48.886;8.728;2022-10-30T03:11:58;14.00;99.30
2867;DHT22;1441;48.886;8.728;2022-10-30T03:14:24;13.90;99.60
2867;DHT22;1441;48.886;8.728;2022-10-30T03:16:49;13.90;99.90
2867;DHT22;1441;48.886;8.728;2022-10-30T03:19:17;13.80;99.90
2867;DHT22;1441;48.886;8.728;2022-10-30T03:21:43;13.80;99.80
2867;DHT22;1441;48.886;8.728;2022-10-30T03:24:08;13.80;99.90
2867;DHT22;1441;48.886;8.728;2022-10-30T03:26:34;13.90;99.20
2867;DHT22;1441;48.886;8.728;2022-10-30T03:29:00;13.90;99.20
2867;DHT22;1441;48.886;8.728;2022-10-30T03:31:25;13.90;98.90
2867;DHT22;1441;48.886;8.728;2022-10-30T03:33:51;13.90;98.80
2867;DHT22;1441;48.886;8.728;2022-10-30T03:36:16;13.80;99.20
2867;DHT22;1441;48.886;8.728;2022-10-30T03:38:42;13.80;99.20
2867;DHT22;1441;48.886;8.728;2022-10-30T03:41:08;13.70;99.80
2867;DHT22;1441;48.886;8.728;2022-10-30T03:43:33;13.70;99.30
2867;DHT22;1441;48.886;8.728;2022-10-30T03:45:59;13.60;99.70
2867;DHT22;1441;48.886;8.728;2022-10-30T03:48:26;13.50;99.90
2867;DHT22;1441;48.886;8.728;2022-10-30T03:50:56;13.60;99.70
2867;DHT22;1441;48.886;8.728;2022-10-30T03:53:22;13.50;99.80
2867;DHT22;1441;48.886;8.728;2022-10-30T03:55:51;13.50;99.90
2867;DHT22;1441;48.886;8.728;2022-10-30T03:58:17;13.40;99.90
2867;DHT22;1441;48.886;8.728;2022-10-30T04:00:42;13.50;99.70
2867;DHT22;1441;48.886;8.728;2022-10-30T04:03:09;13.50;99.40
2867;DHT22;1441;48.886;8.728;2022-10-30T04:05:35;13.60;99.60
2867;DHT22;1441;48.886;8.728;2022-10-30T04:08:03;13.60;99.00
2867;DHT22;1441;48.886;8.728;2022-10-30T04:10:29;13.50;99.90
2867;DHT22;1441;48.886;8.728;2022-10-30T04:13:00;13.50;99.30
2867;DHT22;1441;48.886;8.728;2022-10-30T04:15:25;13.50;99.20
2867;DHT22;1441;48.886;8.728;2022-10-30T04:17:51;13.60;99.10
2867;DHT22;1441;48.886;8.728;2022-10-30T04:20:18;13.50;99.40
2867;DHT22;1441;48.886;8.728;2022-10-30T04:22:44;13.60;98.60
2867;DHT22;1441;48.886;8.728;2022-10-30T04:25:10;13.70;98.20
2867;DHT22;1441;48.886;8.728;2022-10-30T04:27:43;13.70;97.90
2867;DHT22;1441;48.886;8.728;2022-10-30T04:30:10;13.80;98.00
2867;DHT22;1441;48.886;8.728;2022-10-30T04:32:44;13.60;98.60
2867;DHT22;1441;48.886;8.728;2022-10-30T04:35:09;13.60;98.10
2867;DHT22;1441;48.886;8.728;2022-10-30T04:37:35;13.60;98.20
2867;DHT22;1441;48.886;8.728;2022-10-30T04:40:00;13.50;98.80
2867;DHT22;1441;48.886;8.728;2022-10-30T04:42:26;13.50;98.70
2867;DHT22;1441;48.886;8.728;2022-10-30T04:44:51;13.60;98.40
2867;DHT22;1441;48.886;8.728;2022-10-30T04:47:17;13.60;98.20
2867;DHT22;1441;48.886;8.728;2022-10-30T04:49:42;13.40;99.10
2867;DHT22;1441;48.886;8.728;2022-10-30T04:52:08;13.40;98.90
2867;DHT22;1441;48.886;8.728;2022-10-30T04:54:34;13.20;99.70
2867;DHT22;1441;48.886;8.728;2022-10-30T04:56:59;13.30;98.90
2867;DHT22;1441;48.886;8.728;2022-10-30T04:59:25;13.20;99.50
2867;DHT22;1441;48.886;8.728;2022-10-30T05:01:50;13.20;99.80
2867;DHT22;1441;48.886;8.728;2022-10-30T05:04:16;13.10;99.90
2867;DHT22;1441;48.886;8.728;2022-10-30T05:06:41;13.20;99.00
2867;DHT22;1441;48.886;8.728;2022-10-30T05:09:07;13.10;99.90
2867;DHT22;1441;48.886;8.728;2022-10-30T05:11:32;13.00;99.80
2867;DHT22;1441;48.886;8.728;2022-10-30T05:13:58;13.00;99.90
2867;DHT22;1441;48.886;8.728;2022-10-30T05:16:24;13.00;99.90
2867;DHT22;1441;48.886;8.728;2022-10-30T05:18:49;13.00;99.90
2867;DHT22;1441;48.886;8.728;2022-10-30T05:21:15;12.90;99.90
2867;DHT22;1441;48.886;8.728;2022-10-30T05:23:40;12.90;99.80
2867;DHT22;1441;48.886;8.728;2022-10-30T05:26:06;12.90;99.30
2867;DHT22;1441;48.886;8.728;2022-10-30T05:28:31;12.80;99.80
2867;DHT22;1441;48.886;8.728;2022-10-30T05:30:57;12.70;99.90
2867;DHT22;1441;48.886;8.728;2022-10-30T05:33:22;12.70;99.90
2867;DHT22;1441;48.886;8.728;2022-10-30T05:35:48;12.60;99.90
2867;DHT22;1441;48.886;8.728;2022-10-30T05:38:13;12.70;99.90
2867;DHT22;1441;48.886;8.728;2022-10-30T05:40:39;12.80;99.40
2867;DHT22;1441;48.886;8.728;2022-10-30T05:43:05;12.70;99.90
2867;DHT22;1441;48.886;8.728;2022-10-30T05:45:30;12.80;99.20
2867;DHT22;1441;48.886;8.728;2022-10-30T05:48:01;12.80;99.20
2867;DHT22;1441;48.886;8.728;2022-10-30T05:50:28;12.70;99.80
2867;DHT22;1441;48.886;8.728;2022-10-30T05:52:58;12.60;99.90
2867;DHT22;1441;48.886;8.728;2022-10-30T05:55:24;12.50;99.90
2867;DHT22;1441;48.886;8.728;2022-10-30T05:57:55;12.40;99.90
2867;DHT22;1441;48.886;8.728;2022-10-30T06:00:21;12.50;99.90
2867;DHT22;1441;48.886;8.728;2022-10-30T06:02:46;12.40;99.80
2867;DHT22;1441;48.886;8.728;2022-10-30T06:05:12;12.40;99.90
2867;DHT22;1441;48.886;8.728;2022-10-30T06:07:38;12.40;99.80
2867;DHT22;1441;48.886;8.728;2022-10-30T06:10:04;12.40;99.50
2867;DHT22;1441;48.886;8.728;2022-10-30T06:12:29;12.40;99.90
2867;DHT22;1441;48.886;8.728;2022-10-30T06:14:55;12.30;99.90
2867;DHT22;1441;48.886;8.728;2022-10-30T06:17:20;12.30;99.90
2867;DHT22;1441;48.886;8.728;2022-10-30T06:19:46;12.40;99.90
2867;DHT22;1441;48.886;8.728;2022-10-30T06:22:11;12.50;99.90
2867;DHT22;1441;48.886;8.728;2022-10-30T06:24:37;12.60;99.90
2867;DHT22;1441;48.886;8.728;2022-10-30T06:27:03;12.80;99.90
2867;DHT22;1441;48.886;8.728;2022-10-30T06:29:28;12.90;99.90
2867;DHT22;1441;48.886;8.728;2022-10-30T06:31:54;12.80;99.90
2867;DHT22;1441;48.886;8.728;2022-10-30T06:34:19;12.80;99.90
2867;DHT22;1441;48.886;8.728;2022-10-30T06:36:45;12.90;99.90
2867;DHT22;1441;48.886;8.728;2022-10-30T06:39:10;13.00;99.80
2867;DHT22;1441;48.886;8.728;2022-10-30T06:41:36;13.00;99.80
2867;DHT22;1441;48.886;8.728;2022-10-30T06:44:02;12.90;99.90
2867;DHT22;1441;48.886;8.728;2022-10-30T06:46:28;12.90;99.90
2867;DHT22;1441;48.886;8.728;2022-10-30T06:48:53;13.10;99.20
2867;DHT22;1441;48.886;8.728;2022-10-30T06:51:19;13.10;99.20
2867;DHT22;1441;48.886;8.728;2022-10-30T06:53:45;13.10;98.80
2867;DHT22;1441;48.886;8.728;2022-10-30T06:56:10;13.20;98.30
2867;DHT22;1441;48.886;8.728;2022-10-30T06:58:36;13.20;99.30
2867;DHT22;1441;48.886;8.728;2022-10-30T07:01:06;13.30;98.70
2867;DHT22;1441;48.886;8.728;2022-10-30T07:03:32;13.50;98.40
2867;DHT22;1441;48.886;8.728;2022-10-30T07:05:58;13.50;98.30
2867;DHT22;1441;48.886;8.728;2022-10-30T07:08:23;13.70;98.30
2867;DHT22;1441;48.886;8.728;2022-10-30T07:10:49;14.20;96.30
2867;DHT22;1441;48.886;8.728;2022-10-30T07:13:15;14.60;94.80
2867;DHT22;1441;48.886;8.728;2022-10-30T07:15:41;15.00;94.10
2867;DHT22;1441;48.886;8.728;2022-10-30T07:18:08;15.30;93.20
2867;DHT22;1441;48.886;8.728;2022-10-30T07:20:35;15.60;91.30
2867;DHT22;1441;48.886;8.728;2022-10-30T07:23:01;15.80;90.90
2867;DHT22;1441;48.886;8.728;2022-10-30T07:25:27;15.70;91.10
2867;DHT22;1441;48.886;8.728;2022-10-30T07:27:53;15.50;91.80
2867;DHT22;1441;48.886;8.728;2022-10-30T07:30:21;15.70;91.50
2867;DHT22;1441;48.886;8.728;2022-10-30T07:33:01;15.60;91.40
2867;DHT22;1441;48.886;8.728;2022-10-30T07:35:28;15.60;91.50
2867;DHT22;1441;48.886;8.728;2022-10-30T07:37:54;15.10;93.90
2867;DHT22;1441;48.886;8.728;2022-10-30T07:40:21;15.40;93.10
2867;DHT22;1441;48.886;8.728;2022-10-30T07:42:47;15.60;92.20
2867;DHT22;1441;48.886;8.728;2022-10-30T07:45:12;15.80;91.50
2867;DHT22;1441;48.886;8.728;2022-10-30T07:47:42;15.70;91.50
2867;DHT22;1441;48.886;8.728;2022-10-30T07:50:08;15.80;91.40
2867;DHT22;1441;48.886;8.728;2022-10-30T07:52:34;15.70;91.80
2867;DHT22;1441;48.886;8.728;2022-10-30T07:55:00;15.80;91.70
2867;DHT22;1441;48.886;8.728;2022-10-30T07:57:26;16.20;90.50
2867;DHT22;1441;48.886;8.728;2022-10-30T07:59:51;16.50;90.10
2867;DHT22;1441;48.886;8.728;2022-10-30T08:02:17;16.50;89.90
2867;DHT22;1441;48.886;8.728;2022-10-30T08:04:42;16.80;89.20
2867;DHT22;1441;48.886;8.728;2022-10-30T08:07:08;16.80;89.40
2867;DHT22;1441;48.886;8.728;2022-10-30T08:09:34;16.60;90.70
2867;DHT22;1441;48.886;8.728;2022-10-30T08:11:59;16.60;91.00
2867;DHT22;1441;48.886;8.728;2022-10-30T08:14:25;16.70;90.40
2867;DHT22;1441;48.886;8.728;2022-10-30T08:16:50;16.60;91.40
2867;DHT22;1441;48.886;8.728;2022-10-30T08:19:16;16.50;92.00
2867;DHT22;1441;48.886;8.728;2022-10-30T08:21:42;16.40;93.40
2867;DHT22;1441;48.886;8.728;2022-10-30T08:24:07;16.30;94.30
2867;DHT22;1441;48.886;8.728;2022-10-30T08:26:33;16.30;94.50
2867;DHT22;1441;48.886;8.728;2022-10-30T08:29:00;16.50;92.90
2867;DHT22;1441;48.886;8.728;2022-10-30T08:31:25;16.40;93.40
2867;DHT22;1441;48.886;8.728;2022-10-30T08:33:51;16.40;93.20
2867;DHT22;1441;48.886;8.728;2022-10-30T08:36:16;16.70;91.10
2867;DHT22;1441;48.886;8.728;2022-10-30T08:38:42;16.80;91.70
2867;DHT22;1441;48.886;8.728;2022-10-30T08:41:07;16.80;91.90
2867;DHT22;1441;48.886;8.728;2022-10-30T08:43:33;16.90;91.40
2867;DHT22;1441;48.886;8.728;2022-10-30T08:45:58;16.90;92.90
2867;DHT22;1441;48.886;8.728;2022-10-30T08:48:24;16.90;92.90
2867;DHT22;1441;48.886;8.728;2022-10-30T08:50:50;16.90;92.80
2867;DHT22;1441;48.886;8.728;2022-10-30T08:53:15;16.90;92.60
2867;DHT22;1441;48.886;8.728;2022-10-30T08:55:41;16.90;92.70
2867;DHT22;1441;48.886;8.728;2022-10-30T08:58:07;17.00;92.40
2867;DHT22;1441;48.886;8.728;2022-10-30T09:00:33;17.00;92.10
2867;DHT22;1441;48.886;8.728;2022-10-30T09:02:59;17.00;91.60
2867;DHT22;1441;48.886;8.728;2022-10-30T09:05:25;17.00;91.20
2867;DHT22;1441;48.886;8.728;2022-10-30T09:08:00;17.10;90.90
2867;DHT22;1441;48.886;8.728;2022-10-30T09:10:28;17.20;91.30
2867;DHT22;1441;48.886;8.728;2022-10-30T09:12:58;17.20;90.20
2867;DHT22;1441;48.886;8.728;2022-10-30T09:15:24;17.30;90.40
2867;DHT22;1441;48.886;8.728;2022-10-30T09:17:59;17.30;89.60
2867;DHT22;1441;48.886;8.728;2022-10-30T09:20:25;17.50;88.30
2867;DHT22;1441;48.886;8.728;2022-10-30T09:22:51;17.60;88.90
2867;DHT22;1441;48.886;8.728;2022-10-30T09:25:17;17.70;87.80
2867;DHT22;1441;48.886;8.728;2022-10-30T09:27:43;17.90;87.60
2867;DHT22;1441;48.886;8.728;2022-10-30T09:30:09;17.90;88.10
2867;DHT22;1441;48.886;8.728;2022-10-30T09:32:34;18.10;88.50
2867;DHT22;1441;48.886;8.728;2022-10-30T09:35:00;18.10;88.70
2867;DHT22;1441;48.886;8.728;2022-10-30T09:37:26;18.00;89.40
2867;DHT22;1441;48.886;8.728;2022-10-30T09:39:52;18.10;89.60
2867;DHT22;1441;48.886;8.728;2022-10-30T09:45:19;18.10;90.50
2867;DHT22;1441;48.886;8.728;2022-10-30T09:51:01;18.20;91.00
2867;DHT22;1441;48.886;8.728;2022-10-30T09:53:30;18.20;90.80
2867;DHT22;1441;48.886;8.728;2022-10-30T09:56:11;18.30;90.60
2867;DHT22;1441;48.886;8.728;2022-10-30T10:04:48;18.70;90.70
2867;DHT22;1441;48.886;8.728;2022-10-30T10:07:24;18.60;90.10
2867;DHT22;1441;48.886;8.728;2022-10-30T10:09:54;18.70;89.00
2867;DHT22;1441;48.886;8.728;2022-10-30T10:12:38;18.80;88.80
2867;DHT22;1441;48.886;8.728;2022-10-30T10:15:15;18.80;89.40
2867;DHT22;1441;48.886;8.728;2022-10-30T10:17:44;18.90;88.70
2867;DHT22;1441;48.886;8.728;2022-10-30T10:20:16;19.00;87.30
2867;DHT22;1441;48.886;8.728;2022-10-30T10:22:48;19.20;85.90
2867;DHT22;1441;48.886;8.728;2022-10-30T10:25:17;19.40;86.10
2867;DHT22;1441;48.886;8.728;2022-10-30T10:28:01;19.50;85.60
2867;DHT22;1441;48.886;8.728;2022-10-30T10:36:59;19.90;85.20
2867;DHT22;1441;48.886;8.728;2022-10-30T10:39:18;20.00;84.50
2867;DHT22;1441;48.886;8.728;2022-10-30T10:44:29;20.30;83.80
2867;DHT22;1441;48.886;8.728;2022-10-30T10:50:17;20.50;84.40
2867;DHT22;1441;48.886;8.728;2022-10-30T10:52:52;20.60;83.70
2867;DHT22;1441;48.886;8.728;2022-10-30T10:55:22;20.70;84.60
2867;DHT22;1441;48.886;8.728;2022-10-30T10:57:48;20.70;84.50
2867;DHT22;1441;48.886;8.728;2022-10-30T11:00:20;20.70;84.90
2867;DHT22;1441;48.886;8.728;2022-10-30T11:03:08;20.80;83.90
2867;DHT22;1441;48.886;8.728;2022-10-30T11:05:50;20.90;84.00
2867;DHT22;1441;48.886;8.728;2022-10-30T11:08:28;20.90;83.50
2867;DHT22;1441;48.886;8.728;2022-10-30T11:11:02;21.00;85.20
2867;DHT22;1441;48.886;8.728;2022-10-30T11:13:36;21.00;84.40
2867;DHT22;1441;48.886;8.728;2022-10-30T11:16:20;21.20;83.70
2867;DHT22;1441;48.886;8.728;2022-10-30T11:19:10;21.20;84.00
2867;DHT22;1441;48.886;8.728;2022-10-30T11:21:42;21.20;85.50
2867;DHT22;1441;48.886;8.728;2022-10-30T11:24:26;21.10;85.30
2867;DHT22;1441;48.886;8.728;2022-10-30T11:26:55;21.10;83.00
2867;DHT22;1441;48.886;8.728;2022-10-30T11:29:24;21.10;85.50
2867;DHT22;1441;48.886;8.728;2022-10-30T11:32:04;21.10;85.90
2867;DHT22;1441;48.886;8.728;2022-10-30T11:34:37;21.10;86.00
2867;DHT22;1441;48.886;8.728;2022-10-30T11:37:03;21.10;85.80
2867;DHT22;1441;48.886;8.728;2022-10-30T11:39:31;21.20;85.10
2867;DHT22;1441;48.886;8.728;2022-10-30T11:42:14;21.40;84.70
2867;DHT22;1441;48.886;8.728;2022-10-30T11:44:47;21.50;85.10
2867;DHT22;1441;48.886;8.728;2022-10-30T11:47:18;21.60;85.30
2867;DHT22;1441;48.886;8.728;2022-10-30T11:49:48;21.70;84.30
2867;DHT22;1441;48.886;8.728;2022-10-30T11:52:19;21.70;84.80
2867;DHT22;1441;48.886;8.728;2022-10-30T11:54:49;21.80;85.30
2867;DHT22;1441;48.886;8.728;2022-10-30T11:57:26;21.90;85.10
2867;DHT22;1441;48.886;8.728;2022-10-30T11:59:53;21.80;85.30
2867;DHT22;1441;48.886;8.728;2022-10-30T12:04:49;22.00;85.20
2867;DHT22;1441;48.886;8.728;2022-10-30T12:07:26;22.00;85.80
2867;DHT22;1441;48.886;8.728;2022-10-30T12:09:54;22.00;86.60
2867;DHT22;1441;48.886;8.728;2022-10-30T12:15:08;22.10;84.80
2867;DHT22;1441;48.886;8.728;2022-10-30T12:17:37;22.20;85.60
2867;DHT22;1441;48.886;8.728;2022-10-30T12:20:03;22.10;86.50
2867;DHT22;1441;48.886;8.728;2022-10-30T12:22:31;22.10;86.20
2867;DHT22;1441;48.886;8.728;2022-10-30T12:25:00;22.10;86.30
2867;DHT22;1441;48.886;8.728;2022-10-30T12:27:28;22.20;85.90
2867;DHT22;1441;48.886;8.728;2022-10-30T12:30:18;22.20;85.70
2867;DHT22;1441;48.886;8.728;2022-10-30T12:33:07;22.20;85.00
2867;DHT22;1441;48.886;8.728;2022-10-30T12:35:43;22.30;84.70
2867;DHT22;1441;48.886;8.728;2022-10-30T12:38:24;22.40;83.80
2867;DHT22;1441;48.886;8.728;2022-10-30T12:41:11;22.40;83.70
2867;DHT22;1441;48.886;8.728;2022-10-30T12:43:41;22.40;85.40
2867;DHT22;1441;48.886;8.728;2022-10-30T12:46:19;22.40;86.10
2867;DHT22;1441;48.886;8.728;2022-10-30T12:48:51;22.30;86.80
2867;DHT22;1441;48.886;8.728;2022-10-30T12:51:26;22.40;86.30
2867;DHT22;1441;48.886;8.728;2022-10-30T12:57:19;22.60;83.20
2867;DHT22;1441;48.886;8.728;2022-10-30T12:59:56;22.70;83.00
2867;DHT22;1441;48.886;8.728;2022-10-30T13:02:55;22.80;82.60
2867;DHT22;1441;48.886;8.728;2022-10-30T13:05:44;23.00;82.20
2867;DHT22;1441;48.886;8.728;2022-10-30T13:08:19;23.00;82.50
2867;DHT22;1441;48.886;8.728;2022-10-30T13:13:49;23.10;82.00
2867;DHT22;1441;48.886;8.728;2022-10-30T13:16:29;23.20;81.60
2867;DHT22;1441;48.886;8.728;2022-10-30T13:18:58;23.20;81.60
2867;DHT22;1441;48.886;8.728;2022-10-30T13:24:17;23.30;81.50
2867;DHT22;1441;48.886;8.728;2022-10-30T13:29:24;23.10;82.30
2867;DHT22;1441;48.886;8.728;2022-10-30T13:32:01;23.10;82.20
2867;DHT22;1441;48.886;8.728;2022-10-30T13:37:20;23.10;82.00
2867;DHT22;1441;48.886;8.728;2022-10-30T13:40:10;23.30;82.00
2867;DHT22;1441;48.886;8.728;2022-10-30T13:45:56;23.20;83.20
2867;DHT22;1441;48.886;8.728;2022-10-30T13:53:47;23.00;86.20
2867;DHT22;1441;48.886;8.728;2022-10-30T13:56:18;23.20;84.90
2867;DHT22;1441;48.886;8.728;2022-10-30T13:58:54;23.20;84.40
2867;DHT22;1441;48.886;8.728;2022-10-30T14:01:35;23.10;84.20
2867;DHT22;1441;48.886;8.728;2022-10-30T14:04:25;23.00;85.90
2867;DHT22;1441;48.886;8.728;2022-10-30T14:07:07;22.90;86.40
2867;DHT22;1441;48.886;8.728;2022-10-30T14:15:30;22.80;87.00
2867;DHT22;1441;48.886;8.728;2022-10-30T14:20:45;22.90;86.60
2867;DHT22;1441;48.886;8.728;2022-10-30T14:23:23;22.90;86.80
2867;DHT22;1441;48.886;8.728;2022-10-30T14:26:18;22.90;87.10
2867;DHT22;1441;48.886;8.728;2022-10-30T14:28:44;22.90;87.10
2867;DHT22;1441;48.886;8.728;2022-10-30T14:31:15;22.90;86.70
2867;DHT22;1441;48.886;8.728;2022-10-30T14:36:16;22.70;87.70
2867;DHT22;1441;48.886;8.728;2022-10-30T14:38:58;22.50;88.70
2867;DHT22;1441;48.886;8.728;2022-10-30T14:41:33;22.40;89.40
2867;DHT22;1441;48.886;8.728;2022-10-30T14:44:26;22.40;89.80
2867;DHT22;1441;48.886;8.728;2022-10-30T14:47:02;22.40;89.70
2867;DHT22;1441;48.886;8.728;2022-10-30T14:49:56;22.40;89.30
2867;DHT22;1441;48.886;8.728;2022-10-30T14:52:41;22.40;89.40
2867;DHT22;1441;48.886;8.728;2022-10-30T15:00:40;22.10;90.80
2867;DHT22;1441;48.886;8.728;2022-10-30T15:03:18;21.90;91.50
2867;DHT22;1441;48.886;8.728;2022-10-30T15:05:58;21.70;92.40
2867;DHT22;1441;48.886;8.728;2022-10-30T15:08:56;21.60;93.50
2867;DHT22;1441;48.886;8.728;2022-10-30T15:14:21;21.60;93.70
2867;DHT22;1441;48.886;8.728;2022-10-30T15:16:50;21.60;93.50
2867;DHT22;1441;48.886;8.728;2022-10-30T15:19:18;21.40;94.40
2867;DHT22;1441;48.886;8.728;2022-10-30T15:21:48;21.30;95.60
2867;DHT22;1441;48.886;8.728;2022-10-30T15:24:17;21.20;96.00
2867;DHT22;1441;48.886;8.728;2022-10-30T15:26:54;21.10;96.10
2867;DHT22;1441;48.886;8.728;2022-10-30T15:29:25;21.00;96.90
2867;DHT22;1441;48.886;8.728;2022-10-30T15:32:03;20.90;97.00
2867;DHT22;1441;48.886;8.728;2022-10-30T15:34:30;20.80;97.30
2867;DHT22;1441;48.886;8.728;2022-10-30T15:36:57;20.70;97.60
2867;DHT22;1441;48.886;8.728;2022-10-30T15:39:24;20.70;97.90
2867;DHT22;1441;48.886;8.728;2022-10-30T15:44:26;20.50;97.80
2867;DHT22;1441;48.886;8.728;2022-10-30T15:46:54;20.60;97.80
2867;DHT22;1441;48.886;8.728;2022-10-30T15:49:34;20.90;96.60
2867;DHT22;1441;48.886;8.728;2022-10-30T15:52:04;21.00;96.10
2867;DHT22;1441;48.886;8.728;2022-10-30T15:54:31;20.80;96.40
2867;DHT22;1441;48.886;8.728;2022-10-30T15:56:58;20.70;96.70
2867;DHT22;1441;48.886;8.728;2022-10-30T15:59:29;20.60;96.80
2867;DHT22;1441;48.886;8.728;2022-10-30T16:01:57;20.50;97.10
2867;DHT22;1441;48.886;8.728;2022-10-30T16:04:31;20.30;97.50
2867;DHT22;1441;48.886;8.728;2022-10-30T16:06:59;20.30;97.60
2867;DHT22;1441;48.886;8.728;2022-10-30T16:09:26;20.20;97.60
2867;DHT22;1441;48.886;8.728;2022-10-30T16:11:54;20.10;97.90
2867;DHT22;1441;48.886;8.728;2022-10-30T16:14:22;20.00;98.10
2867;DHT22;1441;48.886;8.728;2022-10-30T16:16:49;19.90;98.40
2867;DHT22;1441;48.886;8.728;2022-10-30T16:19:27;19.80;98.50
2867;DHT22;1441;48.886;8.728;2022-10-30T16:21:55;19.50;99.30
2867;DHT22;1441;48.886;8.728;2022-10-30T16:24:31;19.30;99.90
2867;DHT22;1441;48.886;8.728;2022-10-30T16:27:17;19.20;99.90
2867;DHT22;1441;48.886;8.728;2022-10-30T16:29:44;19.10;99.90
2867;DHT22;1441;48.886;8.728;2022-10-30T16:32:15;18.80;99.90
2867;DHT22;1441;48.886;8.728;2022-10-30T16:34:41;18.60;99.90
2867;DHT22;1441;48.886;8.728;2022-10-30T16:40:00;18.60;99.90
2867;DHT22;1441;48.886;8.728;2022-10-30T16:42:27;18.60;99.90
2867;DHT22;1441;48.886;8.728;2022-10-30T16:47:59;18.50;99.90
2867;DHT22;1441;48.886;8.728;2022-10-30T16:50:32;18.40;99.90
2867;DHT22;1441;48.886;8.728;2022-10-30T16:53:17;18.50;99.90
2867;DHT22;1441;48.886;8.728;2022-10-30T16:55:44;18.50;99.90
2867;DHT22;1441;48.886;8.728;2022-10-30T16:58:12;18.40;99.90
2867;DHT22;1441;48.886;8.728;2022-10-30T17:00:39;18.40;99.90
2867;DHT22;1441;48.886;8.728;2022-10-30T17:03:07;18.30;99.90
2867;DHT22;1441;48.886;8.728;2022-10-30T17:05:35;18.20;99.90
2867;DHT22;1441;48.886;8.728;2022-10-30T17:08:04;18.20;99.90
2867;DHT22;1441;48.886;8.728;2022-10-30T17:18:41;17.90;99.90
2867;DHT22;1441;48.886;8.728;2022-10-30T17:21:10;17.80;99.90
2867;DHT22;1441;48.886;8.728;2022-10-30T17:23:36;17.70;99.90
2867;DHT22;1441;48.886;8.728;2022-10-30T17:26:09;17.50;99.90
2867;DHT22;1441;48.886;8.728;2022-10-30T17:28:36;17.30;99.90
2867;DHT22;1441;48.886;8.728;2022-10-30T17:33:47;17.40;99.90
2867;DHT22;1441;48.886;8.728;2022-10-30T17:36:27;17.50;99.90
2867;DHT22;1441;48.886;8.728;2022-10-30T17:38:53;17.50;99.90
2867;DHT22;1441;48.886;8.728;2022-10-30T17:41:19;17.50;99.90
2867;DHT22;1441;48.886;8.728;2022-10-30T17:43:52;17.40;99.90
2867;DHT22;1441;48.886;8.728;2022-10-30T17:46:18;17.30;99.90
2867;DHT22;1441;48.886;8.728;2022-10-30T17:48:44;17.20;99.90
2867;DHT22;1441;48.886;8.728;2022-10-30T17:51:12;17.20;99.90
2867;DHT22;1441;48.886;8.728;2022-10-30T17:53:38;17.10;99.90
2867;DHT22;1441;48.886;8.728;2022-10-30T17:56:15;17.10;99.90
2867;DHT22;1441;48.886;8.728;2022-10-30T17:58:43;17.10;99.90
2867;DHT22;1441;48.886;8.728;2022-10-30T18:01:16;16.90;99.90
2867;DHT22;1441;48.886;8.728;2022-10-30T18:03:42;16.90;99.90
2867;DHT22;1441;48.886;8.728;2022-10-30T18:06:14;16.90;99.90
2867;DHT22;1441;48.886;8.728;2022-10-30T18:08:41;16.90;99.90
2867;DHT22;1441;48.886;8.728;2022-10-30T18:11:10;16.70;99.90
2867;DHT22;1441;48.886;8.728;2022-10-30T18:13:36;16.70;99.90